Etusivu
METAR-TAF:

METAR-TAF

Lentoasemat :

Seinäjoki-Ilmajoki, Suomi

Seinäjoen lentoasema

Leveyspiiri: 62-41-37N, Pituuspiiri: 022-49-55E, korkeus merenpinnasta: 91 m

Tämänhetkinen sää

Tämä raportti tehtiin 25 minuuttia sitten, kello 18.20 UTC
Tuuli 6 kn pohjoisen/luoteesta, vaihdellen lännen/luoteen ja pohjoisen välillä
Lämpötila 17°C
Kosteus 63%
Ilmanpaine 1020 hPa
Näkyvyys 10 km tai enemmän
Muutamia pilviä 4200 ft:n korkeudessa
Hajonneita pilviä 5500 ft:n korkeudessa
Pilvistä 8000 ft:n korkeudessa

METAR: EFSI 221820Z AUTO 33006KT 290V360 9999 FEW042 BKN055 OVC080 17/10 Q1020

Aika: 21:45 (18:45 UTC)


TAF: puuttuu

Säähavainnot ja -ennusteet yli 4000 lentoasemalta (METAR- ja TAF-raportit).

Käytössä olevat sääasemat on merkitty karttaan keltaisilla ja punaisilla pisteillä.

Aseta hiiri pisteen päälle nähdäksesi sääaseman nimen.

Klikkaa sitten nähdäksesi säähavainnot ja -ennusteet.

Kartan vaihtaminen: klikkaa mustalla rastilla varustettuja vihreitä pisteitä, niin voit zoomata sisään; viivalla varustettua vihreää pistettä, niin voit zoomata ulos tai vihreitä nuolia, niin pääset viereisille kartoille.


METAR-TAF: